Amoenitas — V2FB4 — position and weather

sailwx.info

Track history (hours):
 
Tides and Currents Weather Stations Pressure Air Temp Water Temp Dewpoint Dewpoint Depression Visibility Wind Speed Wind Dir Waves Ship Positions

Amoenitas

Last reported at 2018-Jul-23 01:47 UTC. Time now 2018-Jul-23 02:13 UTC.
Position N 01°15' E 104°06'.

Length 134 m; draft 6.4 m.

Type: Cargo ship. MMSI: 305621000.

Date/timePositionNaut miles runAvg speedWind from/ knotsBaromVisibWave heightAir tempDewpointWater temp
2018-Jul-23 01:47N 01°15' E 104°06'414.4
2018-Jul-23 01:30N 01°14' E 104°02'814.9
2018-Jul-23 00:59N 01°12' E 103°55'511.4
2018-Jul-23 00:30N 01°12' E 103°49'3 6.3
2018-Jul-22 23:58N 01°15' E 103°48'0 0.0
2018-Jul-22 23:10N 01°15' E 103°48'0 0.0
2018-Jul-22 22:55N 01°15' E 103°48'0 0.0
2018-Jul-22 21:28N 01°15' E 103°48'0 0.1
2018-Jul-22 20:50N 01°15' E 103°48'0 0.1
2018-Jul-22 20:19N 01°15' E 103°48'0 0.2
2018-Jul-22 19:58N 01°15' E 103°48'0 0.0
2018-Jul-22 19:28N 01°15' E 103°48'0 0.0
2018-Jul-22 18:46N 01°15' E 103°48'0 0.0
2018-Jul-22 18:04N 01°15' E 103°48'0 0.0
2018-Jul-22 17:46N 01°15' E 103°48'0 0.0
2018-Jul-22 17:16N 01°15' E 103°48'0 0.0
2018-Jul-22 16:38N 01°15' E 103°48'0 0.0
2018-Jul-22 16:22N 01°15' E 103°48'0 0.0
2018-Jul-22 15:58N 01°15' E 103°48'0 0.0
2018-Jul-22 14:58N 01°15' E 103°48'0 0.0
2018-Jul-22 14:20N 01°15' E 103°48'0 0.0
2018-Jul-22 13:55N 01°15' E 103°48'0 0.0
2018-Jul-22 13:16N 01°15' E 103°48'0 0.0
2018-Jul-22 12:58N 01°15' E 103°48'0 0.0
2018-Jul-22 12:10N 01°15' E 103°48'0 0.0
2018-Jul-22 11:49N 01°15' E 103°48'0 0.4
2018-Jul-22 11:04N 01°15' E 103°48'1 4.5
2018-Jul-22 10:54N 01°15' E 103°47'4 9.5
2018-Jul-22 10:30N 01°17' E 103°44'2 1.3
2018-Jul-22 09:20N 01°18' E 103°43'0 0.0
2018-Jul-22 08:50N 01°18' E 103°43'0 0.0
2018-Jul-22 08:17N 01°18' E 103°43'0 0.0
2018-Jul-22 07:59N 01°18' E 103°43'0 0.0
2018-Jul-22 07:30N 01°18' E 103°43'0 0.0
2018-Jul-22 05:51N 01°18' E 103°43'0 0.0
2018-Jul-22 05:30N 01°18' E 103°43'0 0.0
2018-Jul-22 04:48N 01°18' E 103°43'0 0.0
2018-Jul-22 04:27N 01°18' E 103°43'0 0.0
2018-Jul-22 03:54N 01°18' E 103°43'0 0.0
2018-Jul-22 03:30N 01°18' E 103°43'0 0.0
2018-Jul-22 02:54N 01°18' E 103°43'0 0.0
2018-Jul-22 02:27N 01°18' E 103°43'0 0.0
2018-Jul-22 01:51N 01°18' E 103°43'0 0.0
2018-Jul-22 01:27N 01°18' E 103°43'0 0.0
2018-Jul-22 00:45N 01°18' E 103°43'0 0.0
2018-Jul-22 00:29N 01°18' E 103°43'0 0.0
2018-Jul-21 23:15N 01°18' E 103°43'0 0.0
2018-Jul-21 21:51N 01°18' E 103°43'0 0.0
2018-Jul-21 21:18N 01°18' E 103°43'0 0.0
2018-Jul-21 20:57N 01°18' E 103°43'0 0.0
2018-Jul-21 20:15N 01°18' E 103°43'0 0.0
2018-Jul-21 19:42N 01°18' E 103°43'0 0.0
2018-Jul-21 19:27N 01°18' E 103°43'0 0.0
2018-Jul-21 18:54N 01°18' E 103°43'0 0.0
2018-Jul-21 18:30N 01°18' E 103°43'0 0.0
2018-Jul-21 17:57N 01°18' E 103°43'0 0.0
2018-Jul-21 17:21N 01°18' E 103°43'0 0.0
2018-Jul-21 16:54N 01°18' E 103°43'0 0.0
2018-Jul-21 16:30N 01°18' E 103°43'0 0.0
2018-Jul-21 15:57N 01°18' E 103°43'0 0.0
2018-Jul-21 15:30N 01°18' E 103°43'2 3.6
2018-Jul-21 15:00N 01°17' E 103°44'2 5.1
2018-Jul-21 14:30N 01°15' E 103°44'611.8
2018-Jul-21 13:59N 01°12' E 103°38'3 5.9
2018-Jul-21 13:30N 01°13' E 103°35'4 6.8
2018-Jul-21 12:58N 01°11' E 103°32'3 7.2
2018-Jul-21 12:29N 01°10' E 103°29'  
Track history (hours):
 
Tides and Currents Weather Stations Pressure Air Temp Water Temp Dewpoint Dewpoint Depression Visibility Wind Speed Wind Dir Waves Ship Positions

Amoenitas

Last reported at 2018-Jul-23 01:47 UTC. Time now 2018-Jul-23 02:13 UTC.
Position N 01°15' E 104°06'.

Length 134 m; draft 6.4 m.

Type: Cargo ship. MMSI: 305621000.

Date/timePositionNaut miles runAvg speedWind from/ knotsBaromVisibWave heightAir tempDewpointWater temp
2018-Jul-23 01:47N 01°15' E 104°06'414.4
2018-Jul-23 01:30N 01°14' E 104°02'814.9
2018-Jul-23 00:59N 01°12' E 103°55'511.4
2018-Jul-23 00:30N 01°12' E 103°49'3 6.3
2018-Jul-22 23:58N 01°15' E 103°48'0 0.0
2018-Jul-22 23:10N 01°15' E 103°48'0 0.0
2018-Jul-22 22:55N 01°15' E 103°48'0 0.0
2018-Jul-22 21:28N 01°15' E 103°48'0 0.1
2018-Jul-22 20:50N 01°15' E 103°48'0 0.1
2018-Jul-22 20:19N 01°15' E 103°48'0 0.2
2018-Jul-22 19:58N 01°15' E 103°48'0 0.0
2018-Jul-22 19:28N 01°15' E 103°48'0 0.0
2018-Jul-22 18:46N 01°15' E 103°48'0 0.0
2018-Jul-22 18:04N 01°15' E 103°48'0 0.0
2018-Jul-22 17:46N 01°15' E 103°48'0 0.0
2018-Jul-22 17:16N 01°15' E 103°48'0 0.0
2018-Jul-22 16:38N 01°15' E 103°48'0 0.0
2018-Jul-22 16:22N 01°15' E 103°48'0 0.0
2018-Jul-22 15:58N 01°15' E 103°48'0 0.0
2018-Jul-22 14:58N 01°15' E 103°48'0 0.0
2018-Jul-22 14:20N 01°15' E 103°48'0 0.0
2018-Jul-22 13:55N 01°15' E 103°48'0 0.0
2018-Jul-22 13:16N 01°15' E 103°48'0 0.0
2018-Jul-22 12:58N 01°15' E 103°48'0 0.0
2018-Jul-22 12:10N 01°15' E 103°48'0 0.0
2018-Jul-22 11:49N 01°15' E 103°48'0 0.4
2018-Jul-22 11:04N 01°15' E 103°48'1 4.5
2018-Jul-22 10:54N 01°15' E 103°47'4 9.5
2018-Jul-22 10:30N 01°17' E 103°44'2 1.3
2018-Jul-22 09:20N 01°18' E 103°43'0 0.0
2018-Jul-22 08:50N 01°18' E 103°43'0 0.0
2018-Jul-22 08:17N 01°18' E 103°43'0 0.0
2018-Jul-22 07:59N 01°18' E 103°43'0 0.0
2018-Jul-22 07:30N 01°18' E 103°43'0 0.0
2018-Jul-22 05:51N 01°18' E 103°43'0 0.0
2018-Jul-22 05:30N 01°18' E 103°43'0 0.0
2018-Jul-22 04:48N 01°18' E 103°43'0 0.0
2018-Jul-22 04:27N 01°18' E 103°43'0 0.0
2018-Jul-22 03:54N 01°18' E 103°43'0 0.0
2018-Jul-22 03:30N 01°18' E 103°43'0 0.0
2018-Jul-22 02:54N 01°18' E 103°43'0 0.0
2018-Jul-22 02:27N 01°18' E 103°43'0 0.0
2018-Jul-22 01:51N 01°18' E 103°43'0 0.0
2018-Jul-22 01:27N 01°18' E 103°43'0 0.0
2018-Jul-22 00:45N 01°18' E 103°43'0 0.0
2018-Jul-22 00:29N 01°18' E 103°43'0 0.0
2018-Jul-21 23:15N 01°18' E 103°43'0 0.0
2018-Jul-21 21:51N 01°18' E 103°43'0 0.0
2018-Jul-21 21:18N 01°18' E 103°43'0 0.0
2018-Jul-21 20:57N 01°18' E 103°43'0 0.0
2018-Jul-21 20:15N 01°18' E 103°43'0 0.0
2018-Jul-21 19:42N 01°18' E 103°43'0 0.0
2018-Jul-21 19:27N 01°18' E 103°43'0 0.0
2018-Jul-21 18:54N 01°18' E 103°43'0 0.0
2018-Jul-21 18:30N 01°18' E 103°43'0 0.0
2018-Jul-21 17:57N 01°18' E 103°43'0 0.0
2018-Jul-21 17:21N 01°18' E 103°43'0 0.0
2018-Jul-21 16:54N 01°18' E 103°43'0 0.0
2018-Jul-21 16:30N 01°18' E 103°43'0 0.0
2018-Jul-21 15:57N 01°18' E 103°43'0 0.0
2018-Jul-21 15:30N 01°18' E 103°43'2 3.6
2018-Jul-21 15:00N 01°17' E 103°44'2 5.1
2018-Jul-21 14:30N 01°15' E 103°44'611.8
2018-Jul-21 13:59N 01°12' E 103°38'3 5.9
2018-Jul-21 13:30N 01°13' E 103°35'4 6.8
2018-Jul-21 12:58N 01°11' E 103°32'3 7.2
2018-Jul-21 12:29N 01°10' E 103°29'  

Dump ship's entire track history